createdAt,value
2018-12-21T00:02:22.427Z,4.40
2018-12-21T00:04:49.147Z,4.30
2018-12-21T00:07:15.842Z,4.30
2018-12-21T00:09:42.581Z,4.30
2018-12-21T00:12:09.275Z,4.30
2018-12-21T00:14:35.990Z,4.30
2018-12-21T00:17:02.687Z,4.30
2018-12-21T00:19:29.404Z,4.30
2018-12-21T00:21:56.096Z,4.30
2018-12-21T00:24:22.811Z,4.40
2018-12-21T00:26:49.503Z,4.40
2018-12-21T00:29:16.217Z,4.30
2018-12-21T00:31:48.600Z,4.40
2018-12-21T00:34:21.142Z,4.40
2018-12-21T00:36:53.561Z,4.30
2018-12-21T00:39:26.075Z,4.30
2018-12-21T00:41:52.391Z,4.40
2018-12-21T00:44:35.945Z,4.30
2018-12-21T00:47:07.494Z,4.40
2018-12-21T00:49:34.201Z,4.30
2018-12-21T00:52:00.882Z,4.30
2018-12-21T00:54:27.814Z,4.30
2018-12-21T00:56:54.563Z,4.30
2018-12-21T00:59:21.278Z,4.30
2018-12-21T01:01:48.122Z,4.30
2018-12-21T01:04:14.834Z,4.40
2018-12-21T01:06:41.526Z,4.40
2018-12-21T01:09:08.298Z,4.40
2018-12-21T01:11:34.990Z,4.40
2018-12-21T01:14:01.939Z,4.40
2018-12-21T01:16:28.631Z,4.40
2018-12-21T01:18:55.378Z,4.40
2018-12-21T01:21:22.094Z,4.50
2018-12-21T01:23:48.778Z,4.50
2018-12-21T01:26:15.499Z,4.50
2018-12-21T01:28:42.198Z,4.50
2018-12-21T01:31:08.909Z,4.50
2018-12-21T01:33:35.618Z,4.50
2018-12-21T01:36:02.342Z,4.50
2018-12-21T01:38:29.121Z,4.50
2018-12-21T01:40:55.841Z,4.50
2018-12-21T01:43:22.554Z,4.50
2018-12-21T01:45:49.270Z,4.50
2018-12-21T01:48:15.982Z,4.50
2018-12-21T01:50:42.708Z,4.50
2018-12-21T01:53:09.396Z,4.50
2018-12-21T01:55:36.139Z,4.50
2018-12-21T01:58:02.826Z,4.50
2018-12-21T02:00:29.536Z,4.50
2018-12-21T02:02:56.219Z,4.50
2018-12-21T02:05:22.940Z,4.50
2018-12-21T02:07:50.171Z,4.50
2018-12-21T02:10:16.919Z,4.50
2018-12-21T02:12:43.602Z,4.50
2018-12-21T02:15:10.323Z,4.50
2018-12-21T02:17:37.015Z,4.50
2018-12-21T02:20:03.746Z,4.50
2018-12-21T02:22:30.542Z,4.50
2018-12-21T02:24:57.406Z,4.50
2018-12-21T02:27:24.102Z,4.60
2018-12-21T02:29:50.821Z,4.60
2018-12-21T02:32:17.629Z,4.60
2018-12-21T02:34:44.346Z,4.60
2018-12-21T02:37:11.045Z,4.60
2018-12-21T02:39:37.762Z,4.60
2018-12-21T02:42:04.458Z,4.60
2018-12-21T02:44:31.177Z,4.60
2018-12-21T02:46:57.899Z,4.60
2018-12-21T02:49:24.584Z,4.60
2018-12-21T02:51:51.310Z,4.60
2018-12-21T02:54:18.005Z,4.60
2018-12-21T02:56:44.731Z,4.60
2018-12-21T02:59:11.417Z,4.60
2018-12-21T03:01:38.250Z,4.60
2018-12-21T03:04:04.935Z,4.60
2018-12-21T03:06:31.647Z,4.60
2018-12-21T03:08:58.343Z,4.60
2018-12-21T03:11:25.063Z,4.60
2018-12-21T03:13:51.750Z,4.60
2018-12-21T03:16:20.362Z,4.70
2018-12-21T03:18:49.048Z,4.60
2018-12-21T03:21:15.990Z,4.60
2018-12-21T03:23:43.587Z,4.60
2018-12-21T03:26:10.301Z,4.60
2018-12-21T03:28:37.007Z,4.60
2018-12-21T03:31:03.746Z,4.60
2018-12-21T03:33:30.535Z,4.60
2018-12-21T03:35:58.054Z,4.60
2018-12-21T03:38:24.953Z,4.60
2018-12-21T03:40:51.723Z,4.60
2018-12-21T03:43:18.523Z,4.70
2018-12-21T03:45:45.244Z,4.70
2018-12-21T03:48:12.069Z,4.60
2018-12-21T03:50:38.782Z,4.70
2018-12-21T03:53:05.468Z,4.70
2018-12-21T03:55:32.187Z,4.60
2018-12-21T03:57:58.878Z,4.60
2018-12-21T04:00:25.598Z,4.60
2018-12-21T04:02:52.295Z,4.60
2018-12-21T04:05:19.005Z,4.60
2018-12-21T04:07:45.691Z,4.60
2018-12-21T04:10:12.416Z,4.60
2018-12-21T04:12:39.110Z,4.60
2018-12-21T04:15:06.039Z,4.60
2018-12-21T04:17:32.730Z,4.60
2018-12-21T04:19:59.446Z,4.60
2018-12-21T04:22:34.085Z,4.60
2018-12-21T04:24:54.850Z,4.60
2018-12-21T04:27:21.562Z,4.60
2018-12-21T04:29:48.255Z,4.60
2018-12-21T04:32:14.966Z,4.60
2018-12-21T04:34:41.676Z,4.60
2018-12-21T04:37:08.408Z,4.60
2018-12-21T04:39:35.098Z,4.60
2018-12-21T04:42:01.820Z,4.60
2018-12-21T04:44:28.515Z,4.60
2018-12-21T04:46:55.275Z,4.60
2018-12-21T04:49:22.082Z,4.60
2018-12-21T04:51:48.802Z,4.60
2018-12-21T04:54:15.603Z,4.60
2018-12-21T04:56:42.332Z,4.60
2018-12-21T04:59:09.731Z,4.60
2018-12-21T05:01:36.824Z,4.60
2018-12-21T05:04:03.515Z,4.60
2018-12-21T05:06:30.230Z,4.60
2018-12-21T05:08:56.922Z,4.60
2018-12-21T05:11:23.642Z,4.60
2018-12-21T05:13:50.340Z,4.60
2018-12-21T05:16:17.058Z,4.60
2018-12-21T05:18:43.762Z,4.60
2018-12-21T05:21:10.476Z,4.60
2018-12-21T05:23:37.362Z,4.60
2018-12-21T05:26:04.110Z,4.60
2018-12-21T05:28:30.810Z,4.60
2018-12-21T05:30:57.521Z,4.60
2018-12-21T05:33:24.210Z,4.60
2018-12-21T05:35:50.927Z,4.60
2018-12-21T05:38:17.619Z,4.60
2018-12-21T05:40:51.282Z,4.70
2018-12-21T05:43:17.965Z,4.70
2018-12-21T05:45:44.683Z,4.70
2018-12-21T05:48:11.378Z,4.80
2018-12-21T05:50:38.092Z,4.70
2018-12-21T05:53:04.784Z,4.70
2018-12-21T05:55:31.494Z,4.80
2018-12-21T05:57:58.182Z,4.80
2018-12-21T06:00:24.914Z,4.80
2018-12-21T06:02:51.634Z,4.80
2018-12-21T06:05:18.314Z,4.80
2018-12-21T06:07:45.035Z,4.80
2018-12-21T06:10:11.719Z,4.90
2018-12-21T06:12:38.430Z,4.90
2018-12-21T06:15:05.139Z,4.90
2018-12-21T06:17:31.858Z,4.90
2018-12-21T06:19:58.575Z,5.00
2018-12-21T06:22:25.295Z,5.00
2018-12-21T06:24:51.982Z,5.10
2018-12-21T06:27:18.690Z,5.10
2018-12-21T06:29:45.376Z,5.10
2018-12-21T06:32:12.110Z,5.20
2018-12-21T06:34:39.001Z,5.20
2018-12-21T06:37:05.712Z,5.20
2018-12-21T06:39:32.545Z,5.20
2018-12-21T06:41:59.566Z,5.20
2018-12-21T06:44:26.255Z,5.30
2018-12-21T06:46:52.995Z,5.20
2018-12-21T06:49:19.870Z,5.30
2018-12-21T06:51:46.586Z,5.30
2018-12-21T06:54:13.279Z,5.30
2018-12-21T06:56:39.990Z,5.30
2018-12-21T06:59:06.978Z,5.30
2018-12-21T07:01:33.692Z,5.30
2018-12-21T07:04:00.382Z,5.30
2018-12-21T07:06:27.090Z,5.30
2018-12-21T07:08:53.810Z,5.30
2018-12-21T07:11:20.522Z,5.30
2018-12-21T07:13:48.206Z,5.30
2018-12-21T07:16:14.930Z,5.30
2018-12-21T07:18:41.626Z,5.20
2018-12-21T07:21:08.338Z,5.20
2018-12-21T07:23:35.027Z,5.20
2018-12-21T07:26:01.755Z,5.20
2018-12-21T07:28:28.449Z,5.20
2018-12-21T07:30:55.166Z,5.20
2018-12-21T07:33:21.850Z,5.20
2018-12-21T07:35:48.538Z,5.10
2018-12-21T07:38:15.258Z,5.10
2018-12-21T07:40:41.947Z,5.10
2018-12-21T07:43:08.654Z,5.10
2018-12-21T07:45:35.338Z,5.10
2018-12-21T07:48:02.063Z,5.10
2018-12-21T07:50:28.759Z,5.10
2018-12-21T07:52:55.478Z,5.10
2018-12-21T07:55:22.174Z,5.10
2018-12-21T07:57:48.890Z,5.00
2018-12-21T08:00:15.590Z,5.00
2018-12-21T08:02:42.310Z,4.90
2018-12-21T08:05:09.004Z,4.80
2018-12-21T08:07:35.738Z,4.80
2018-12-21T08:10:03.291Z,4.80
2018-12-21T08:12:30.040Z,4.80
2018-12-21T08:14:56.725Z,4.80
2018-12-21T08:17:23.452Z,4.70
2018-12-21T08:19:50.146Z,4.70
2018-12-21T08:22:16.861Z,4.70
2018-12-21T08:24:43.562Z,4.80
2018-12-21T08:27:10.287Z,4.80
2018-12-21T08:29:36.983Z,4.80
2018-12-21T08:32:03.708Z,4.80
2018-12-21T08:34:30.410Z,4.80
2018-12-21T08:36:57.127Z,4.80
2018-12-21T08:39:24.004Z,4.80
2018-12-21T08:41:50.782Z,4.90
2018-12-21T08:44:17.478Z,4.90
2018-12-21T08:46:44.222Z,4.90
2018-12-21T08:49:10.917Z,4.90
2018-12-21T08:51:38.063Z,4.90
2018-12-21T08:54:04.758Z,4.90
2018-12-21T08:56:31.480Z,4.90
2018-12-21T08:58:58.177Z,4.90
2018-12-21T09:01:24.897Z,4.90
2018-12-21T09:03:51.586Z,5.00
2018-12-21T09:06:18.808Z,5.00
2018-12-21T09:08:45.619Z,5.00
2018-12-21T09:11:12.317Z,4.90
2018-12-21T09:13:39.034Z,5.00
2018-12-21T09:16:05.731Z,5.00
2018-12-21T09:18:32.458Z,5.00
2018-12-21T09:20:59.147Z,5.00
2018-12-21T09:23:25.871Z,5.00
2018-12-21T09:25:52.563Z,5.00
2018-12-21T09:28:19.297Z,5.00
2018-12-21T09:30:46.799Z,5.00
2018-12-21T09:33:13.514Z,5.10
2018-12-21T09:35:40.210Z,5.10
2018-12-21T09:38:06.958Z,5.10
2018-12-21T09:40:33.650Z,5.10
2018-12-21T09:43:00.369Z,5.10
2018-12-21T09:45:27.069Z,5.10
2018-12-21T09:47:53.826Z,5.10
2018-12-21T09:50:22.430Z,5.10
2018-12-21T09:52:49.151Z,5.20
2018-12-21T09:55:15.837Z,5.10
2018-12-21T09:57:42.567Z,5.20
2018-12-21T10:00:10.043Z,5.20
2018-12-21T10:02:36.866Z,5.20
2018-12-21T10:05:03.941Z,5.20
2018-12-21T10:07:30.667Z,5.20
2018-12-21T10:09:57.350Z,5.20
2018-12-21T10:12:24.077Z,5.30
2018-12-21T10:14:50.765Z,5.30
2018-12-21T10:17:17.483Z,5.30
2018-12-21T10:19:44.205Z,5.20
2018-12-21T10:22:10.938Z,5.20
2018-12-21T10:27:10.071Z,5.20
2018-12-21T10:29:36.781Z,5.20
2018-12-21T10:32:03.502Z,5.20
2018-12-21T10:34:30.202Z,5.20
2018-12-21T10:36:57.621Z,5.20
2018-12-21T10:39:24.299Z,5.20
2018-12-21T10:41:51.020Z,5.20
2018-12-21T10:44:17.709Z,5.10
2018-12-21T10:46:44.422Z,5.10
2018-12-21T10:49:11.106Z,5.10
2018-12-21T10:51:37.807Z,5.10
2018-12-21T10:54:04.539Z,5.00
2018-12-21T10:56:31.235Z,5.00
2018-12-21T10:58:57.955Z,5.00
2018-12-21T11:01:24.642Z,5.00
2018-12-21T11:03:51.359Z,5.00
2018-12-21T11:06:18.346Z,5.00
2018-12-21T11:08:45.063Z,5.00
2018-12-21T11:11:11.755Z,5.10
2018-12-21T11:13:38.470Z,5.00
2018-12-21T11:16:05.154Z,5.00
2018-12-21T11:18:31.935Z,5.00
2018-12-21T11:20:59.150Z,5.00
2018-12-21T11:23:25.867Z,5.00
2018-12-21T11:25:52.706Z,5.00
2018-12-21T11:28:25.335Z,5.00
2018-12-21T11:30:48.135Z,5.00
2018-12-21T11:33:14.855Z,5.10
2018-12-21T11:35:41.542Z,5.00
2018-12-21T11:38:08.255Z,5.00
2018-12-21T11:40:35.037Z,5.00
2018-12-21T11:43:01.750Z,5.00
2018-12-21T11:45:28.434Z,5.10
2018-12-21T11:47:55.142Z,5.10
2018-12-21T11:50:21.826Z,5.10
2018-12-21T11:52:48.546Z,5.10
2018-12-21T11:55:15.244Z,5.10
2018-12-21T11:57:41.964Z,5.10
2018-12-21T12:00:08.893Z,5.10
2018-12-21T12:02:35.606Z,5.20
2018-12-21T12:05:03.189Z,5.10
2018-12-21T12:07:30.133Z,5.20
2018-12-21T12:09:56.810Z,5.20
2018-12-21T12:12:23.526Z,5.20
2018-12-21T12:14:50.210Z,5.20
2018-12-21T12:17:16.923Z,5.30
2018-12-21T12:19:43.643Z,5.30
2018-12-21T12:22:10.363Z,5.30
2018-12-21T12:24:37.055Z,5.30
2018-12-21T12:27:03.742Z,5.30
2018-12-21T12:29:30.475Z,5.30
2018-12-21T12:31:57.163Z,5.40
2018-12-21T12:34:23.891Z,5.40
2018-12-21T12:36:50.583Z,5.40
2018-12-21T12:39:17.306Z,5.40
2018-12-21T12:41:44.003Z,5.50
2018-12-21T12:44:10.722Z,5.50
2018-12-21T12:46:37.419Z,5.50
2018-12-21T12:49:04.151Z,5.50
2018-12-21T12:51:30.936Z,5.50
2018-12-21T12:53:57.751Z,5.50
2018-12-21T12:56:24.471Z,5.60
2018-12-21T12:58:51.195Z,5.60
2018-12-21T13:01:17.890Z,5.70
2018-12-21T13:03:44.617Z,5.70
2018-12-21T13:06:11.322Z,5.80
2018-12-21T13:08:39.055Z,5.80
2018-12-21T13:11:05.926Z,5.80
2018-12-21T13:13:32.642Z,5.90
2018-12-21T13:16:06.239Z,5.90
2018-12-21T13:18:32.978Z,6.00
2018-12-21T13:20:59.683Z,6.00
2018-12-21T13:23:26.424Z,6.00
2018-12-21T13:25:53.139Z,6.10
2018-12-21T13:28:19.880Z,6.10
2018-12-21T13:30:46.579Z,6.10
2018-12-21T13:33:13.306Z,6.10
2018-12-21T13:35:40.006Z,6.10
2018-12-21T13:38:06.747Z,6.20
2018-12-21T13:40:33.474Z,6.20
2018-12-21T13:43:00.201Z,6.20
2018-12-21T13:45:26.925Z,6.20
2018-12-21T13:47:53.623Z,6.20
2018-12-21T13:50:20.360Z,6.20
2018-12-21T13:52:47.062Z,6.20
2018-12-21T13:55:20.214Z,6.30
2018-12-21T13:57:42.710Z,6.30
2018-12-21T14:00:09.933Z,6.30
2018-12-21T14:02:36.806Z,6.30
2018-12-21T14:05:03.538Z,6.30
2018-12-21T14:07:30.258Z,6.30
2018-12-21T14:09:56.958Z,6.30
2018-12-21T14:12:23.676Z,6.40
2018-12-21T14:14:50.372Z,6.40
2018-12-21T14:17:17.094Z,6.40
2018-12-21T14:19:43.782Z,6.40
2018-12-21T14:22:10.511Z,6.40
2018-12-21T14:24:37.231Z,6.50
2018-12-21T14:27:03.951Z,6.40
2018-12-21T14:29:30.647Z,6.50
2018-12-21T14:31:57.370Z,6.50
2018-12-21T14:34:24.067Z,6.50
2018-12-21T14:36:50.786Z,6.50
2018-12-21T14:39:17.482Z,6.60
2018-12-21T14:41:44.207Z,6.60
2018-12-21T14:44:10.898Z,6.60
2018-12-21T14:46:37.610Z,6.70
2018-12-21T14:49:04.302Z,6.70
2018-12-21T14:51:31.015Z,6.80
2018-12-21T14:53:57.718Z,6.90
2018-12-21T14:56:24.450Z,6.90
2018-12-21T14:58:51.154Z,6.90
2018-12-21T15:01:17.874Z,7.00
2018-12-21T15:03:44.575Z,7.00
2018-12-21T15:06:11.303Z,7.10
2018-12-21T15:08:37.991Z,7.10
2018-12-21T15:11:04.719Z,7.10
2018-12-21T15:13:31.419Z,7.20
2018-12-21T15:15:58.136Z,7.20
2018-12-21T15:18:24.843Z,7.20
2018-12-21T15:20:51.682Z,7.30
2018-12-21T15:23:18.379Z,7.30
2018-12-21T15:25:46.158Z,7.30
2018-12-21T15:28:13.339Z,7.30
2018-12-21T15:30:40.035Z,7.40
2018-12-21T15:33:06.762Z,7.40
2018-12-21T15:35:33.474Z,7.50
2018-12-21T15:38:00.202Z,7.50
2018-12-21T15:40:26.894Z,7.50
2018-12-21T15:42:53.615Z,7.50
2018-12-21T15:45:20.343Z,7.50
2018-12-21T15:47:47.071Z,7.60
2018-12-21T15:50:13.786Z,7.70
2018-12-21T15:52:40.874Z,7.70
2018-12-21T15:55:07.569Z,7.80
2018-12-21T15:57:34.294Z,7.80
2018-12-21T16:00:01.380Z,7.90
2018-12-21T16:02:28.911Z,8.00
2018-12-21T16:04:57.805Z,8.00
2018-12-21T16:07:24.922Z,8.10
2018-12-21T16:09:52.525Z,8.10
2018-12-21T16:12:19.886Z,8.20
2018-12-21T16:14:46.918Z,8.20
2018-12-21T16:17:14.573Z,8.20
2018-12-21T16:19:41.869Z,8.30
2018-12-21T16:22:09.123Z,8.30
2018-12-21T16:24:36.293Z,8.40
2018-12-21T16:27:03.301Z,8.40
2018-12-21T16:29:30.486Z,8.40
2018-12-21T16:31:57.632Z,8.50
2018-12-21T16:34:24.695Z,8.50
2018-12-21T16:36:52.261Z,8.50
2018-12-21T16:39:19.314Z,8.60
2018-12-21T16:41:46.417Z,8.60
2018-12-21T16:44:13.132Z,8.70
2018-12-21T16:46:39.847Z,8.70
2018-12-21T16:49:06.576Z,8.70
2018-12-21T16:51:33.279Z,8.70
2018-12-21T16:54:00.006Z,8.80
2018-12-21T16:56:26.703Z,8.80
2018-12-21T16:58:53.439Z,8.80
2018-12-21T17:01:20.191Z,8.80
2018-12-21T17:03:46.923Z,8.80
2018-12-21T17:06:13.826Z,8.90
2018-12-21T17:08:40.582Z,8.90
2018-12-21T17:11:07.274Z,8.80
2018-12-21T17:13:34.003Z,8.90
2018-12-21T17:16:01.006Z,8.90
2018-12-21T17:18:27.950Z,8.90
2018-12-21T17:20:54.647Z,9.00
2018-12-21T17:23:21.415Z,9.00
2018-12-21T17:25:48.110Z,8.90
2018-12-21T17:28:14.831Z,9.00
2018-12-21T17:30:41.527Z,9.00
2018-12-21T17:33:08.242Z,9.00
2018-12-21T17:35:34.938Z,9.00
2018-12-21T17:38:01.667Z,9.00
2018-12-21T17:40:28.367Z,8.90
2018-12-21T17:42:55.088Z,9.00
2018-12-21T17:45:21.815Z,9.00
2018-12-21T17:47:48.516Z,9.00
2018-12-21T17:50:15.246Z,9.00
2018-12-21T17:52:41.942Z,9.00
2018-12-21T17:55:09.058Z,9.10
2018-12-21T17:57:35.742Z,9.10
2018-12-21T18:00:03.171Z,9.20
2018-12-21T18:02:29.883Z,9.20
2018-12-21T18:04:56.579Z,9.20
2018-12-21T18:07:23.338Z,9.20
2018-12-21T18:09:50.042Z,9.20
2018-12-21T18:12:16.762Z,9.10
2018-12-21T18:14:43.495Z,9.00
2018-12-21T18:17:10.190Z,8.90
2018-12-21T18:19:36.915Z,8.90
2018-12-21T18:22:08.258Z,8.90
2018-12-21T18:24:34.979Z,8.90
2018-12-21T18:27:01.671Z,8.90
2018-12-21T18:29:28.607Z,9.00
2018-12-21T18:31:57.575Z,9.00
2018-12-21T18:34:26.605Z,9.00
2018-12-21T18:36:53.326Z,9.00
2018-12-21T18:39:20.062Z,9.00
2018-12-21T18:41:46.786Z,8.90
2018-12-21T18:44:13.503Z,8.90
2018-12-21T18:46:40.261Z,8.90
2018-12-21T18:49:08.186Z,8.90
2018-12-21T18:51:34.887Z,8.90
2018-12-21T18:54:01.609Z,9.00
2018-12-21T18:56:29.439Z,9.00
2018-12-21T18:58:56.151Z,9.00
2018-12-21T19:01:22.875Z,8.90
2018-12-21T19:03:49.598Z,9.00
2018-12-21T19:06:16.298Z,9.00
2018-12-21T19:08:43.046Z,9.00
2018-12-21T19:11:09.775Z,8.90
2018-12-21T19:13:36.494Z,8.90
2018-12-21T19:16:03.190Z,8.90
2018-12-21T19:18:29.909Z,8.90
2018-12-21T19:20:56.616Z,8.90
2018-12-21T19:23:23.410Z,8.80
2018-12-21T19:25:50.137Z,8.80
2018-12-21T19:28:16.846Z,8.80
2018-12-21T19:30:43.570Z,8.80
2018-12-21T19:33:10.270Z,8.80
2018-12-21T19:35:37.014Z,8.80
2018-12-21T19:38:03.707Z,8.80
2018-12-21T19:40:30.431Z,8.80
2018-12-21T19:42:57.129Z,8.70
2018-12-21T19:45:23.858Z,8.70
2018-12-21T19:47:50.564Z,8.80
2018-12-21T19:50:17.310Z,8.80
2018-12-21T19:52:44.008Z,9.00
2018-12-21T19:55:14.651Z,9.00
2018-12-21T19:57:41.345Z,8.90
2018-12-21T20:00:08.218Z,8.80
2018-12-21T20:02:34.915Z,8.70
2018-12-21T20:05:01.656Z,8.70
2018-12-21T20:07:28.393Z,8.60
2018-12-21T20:09:55.118Z,8.70
2018-12-21T20:12:21.820Z,8.70
2018-12-21T20:14:48.543Z,8.70
2018-12-21T20:17:15.239Z,8.70
2018-12-21T20:19:41.975Z,8.60
2018-12-21T20:22:08.666Z,8.60
2018-12-21T20:24:36.626Z,8.70
2018-12-21T20:27:13.540Z,8.80
2018-12-21T20:29:36.488Z,8.80
2018-12-21T20:32:03.182Z,8.80
2018-12-21T20:34:30.722Z,8.80
2018-12-21T20:36:57.918Z,8.80
2018-12-21T20:39:26.668Z,8.80
2018-12-21T20:41:53.772Z,8.70
2018-12-21T20:44:20.482Z,8.60
2018-12-21T20:46:47.215Z,8.60
2018-12-21T20:49:13.911Z,8.60
2018-12-21T20:51:40.642Z,8.60
2018-12-21T20:54:07.346Z,8.60
2018-12-21T20:56:34.062Z,8.60
2018-12-21T20:59:03.619Z,8.50
2018-12-21T21:01:33.223Z,8.50
2018-12-21T21:03:59.926Z,8.50
2018-12-21T21:06:26.641Z,8.50
2018-12-21T21:08:53.386Z,8.50
2018-12-21T21:11:24.370Z,8.50
2018-12-21T21:13:48.820Z,8.50
2018-12-21T21:16:22.449Z,8.50
2018-12-21T21:18:49.151Z,8.50
2018-12-21T21:21:15.905Z,8.40
2018-12-21T21:23:42.609Z,8.40
2018-12-21T21:26:09.330Z,8.50
2018-12-21T21:28:36.026Z,8.40
2018-12-21T21:31:02.760Z,8.50
2018-12-21T21:33:29.447Z,8.40
2018-12-21T21:35:56.176Z,8.30
2018-12-21T21:38:22.915Z,8.30
2018-12-21T21:40:49.634Z,8.20
2018-12-21T21:43:17.346Z,8.20
2018-12-21T21:45:44.075Z,8.20
2018-12-21T21:48:10.792Z,8.10
2018-12-21T21:50:37.815Z,8.10
2018-12-21T21:53:04.501Z,8.10
2018-12-21T21:55:31.222Z,8.10
2018-12-21T21:57:57.922Z,8.10
2018-12-21T22:00:24.651Z,8.10
2018-12-21T22:02:51.338Z,8.00
2018-12-21T22:05:18.057Z,8.10
2018-12-21T22:07:44.758Z,8.10
2018-12-21T22:10:11.473Z,8.10
2018-12-21T22:12:38.169Z,8.10
2018-12-21T22:15:05.708Z,8.10
2018-12-21T22:17:32.410Z,8.10
2018-12-21T22:19:59.119Z,8.20
2018-12-21T22:22:25.855Z,8.10
2018-12-21T22:24:52.549Z,8.20
2018-12-21T22:27:19.286Z,8.20
2018-12-21T22:29:45.994Z,8.10
2018-12-21T22:32:12.718Z,8.10
2018-12-21T22:34:39.538Z,8.10
2018-12-21T22:37:06.263Z,8.10
2018-12-21T22:39:32.962Z,8.10
2018-12-21T22:41:59.685Z,8.20
2018-12-21T22:44:26.383Z,8.20
2018-12-21T22:46:53.132Z,8.20
2018-12-21T22:49:19.826Z,8.30
2018-12-21T22:51:46.659Z,8.30
2018-12-21T22:54:13.552Z,8.40
2018-12-21T22:56:40.274Z,8.40
2018-12-21T22:59:06.973Z,8.40
2018-12-21T23:01:33.687Z,8.40
2018-12-21T23:04:00.379Z,8.40
2018-12-21T23:06:27.125Z,8.40
2018-12-21T23:08:53.817Z,8.30
2018-12-21T23:11:20.554Z,8.40
2018-12-21T23:13:47.240Z,8.30
2018-12-21T23:16:13.967Z,8.40
2018-12-21T23:18:40.670Z,8.30
2018-12-21T23:21:07.406Z,8.30
2018-12-21T23:23:34.218Z,8.40
2018-12-21T23:26:00.935Z,8.40
2018-12-21T23:28:27.630Z,8.40
2018-12-21T23:30:54.351Z,8.40
2018-12-21T23:33:21.071Z,8.40
2018-12-21T23:35:47.881Z,8.40
2018-12-21T23:38:14.565Z,8.40
2018-12-21T23:40:41.287Z,8.40
2018-12-21T23:43:07.997Z,8.50
2018-12-21T23:45:34.712Z,8.40
2018-12-21T23:48:01.669Z,8.50
2018-12-21T23:50:28.443Z,8.50
2018-12-21T23:52:55.162Z,8.40
2018-12-21T23:55:21.881Z,8.40
2018-12-21T23:57:48.602Z,8.40
